createdAt,value
2023-03-31T00:04:05.534Z,10.99
2023-03-31T00:09:22.075Z,11.02
2023-03-31T00:14:23.732Z,10.89
2023-03-31T00:19:25.404Z,10.84
2023-03-31T00:24:27.067Z,10.87
2023-03-31T00:29:29.399Z,10.78
2023-03-31T00:34:30.981Z,10.90
2023-03-31T00:39:33.931Z,10.86
2023-03-31T00:44:38.456Z,10.73
2023-03-31T00:49:49.494Z,10.68
2023-03-31T00:54:56.669Z,10.88
2023-03-31T01:00:10.018Z,10.75
2023-03-31T01:05:11.632Z,10.69
2023-03-31T01:10:16.708Z,10.67
2023-03-31T01:15:20.180Z,10.60
2023-03-31T01:21:03.929Z,10.51
2023-03-31T01:26:08.473Z,10.47
2023-03-31T01:31:29.080Z,10.55
2023-03-31T01:36:49.613Z,10.40
2023-03-31T01:42:10.920Z,10.52
2023-03-31T01:47:40.860Z,10.52
2023-03-31T01:52:49.861Z,10.40
2023-03-31T01:57:57.985Z,10.58
2023-03-31T02:03:09.890Z,10.49
2023-03-31T02:08:16.428Z,10.45
2023-03-31T02:13:21.435Z,10.46
2023-03-31T02:18:30.697Z,10.42
2023-03-31T02:23:33.142Z,10.33
2023-03-31T02:28:35.601Z,10.24
2023-03-31T02:33:37.375Z,10.17
2023-03-31T02:38:45.082Z,10.17
2023-03-31T02:43:46.732Z,10.07
2023-03-31T02:48:52.055Z,10.01
2023-03-31T02:54:04.472Z,10.00
2023-03-31T02:59:09.009Z,9.96
2023-03-31T03:04:34.211Z,9.92
2023-03-31T03:10:00.012Z,10.08
2023-03-31T03:15:11.180Z,10.08
2023-03-31T03:20:14.112Z,10.07
2023-03-31T03:25:20.843Z,10.05
2023-03-31T03:30:22.659Z,10.06
2023-03-31T03:35:24.787Z,10.01
2023-03-31T03:40:26.403Z,9.94
2023-03-31T03:45:28.064Z,9.84
2023-03-31T03:50:29.668Z,9.80
2023-03-31T03:55:31.318Z,9.84
2023-03-31T04:00:33.448Z,9.83
2023-03-31T04:05:35.027Z,9.80
2023-03-31T04:10:36.696Z,9.72
2023-03-31T04:15:38.452Z,9.64
2023-03-31T04:20:40.029Z,9.49
2023-03-31T04:25:46.384Z,9.33
2023-03-31T04:30:49.154Z,9.31
2023-03-31T04:35:52.654Z,9.33
2023-03-31T04:40:54.437Z,9.20
2023-03-31T04:45:56.408Z,9.13
2023-03-31T04:50:58.027Z,9.18
2023-03-31T04:55:59.774Z,9.02
2023-03-31T05:01:01.485Z,9.20
2023-03-31T05:06:03.224Z,9.16
2023-03-31T05:11:04.975Z,9.05
2023-03-31T05:16:12.472Z,9.05
2023-03-31T05:21:21.657Z,9.07
2023-03-31T05:26:25.429Z,9.07
2023-03-31T05:31:27.373Z,8.85
2023-03-31T05:36:29.152Z,8.86
2023-03-31T05:41:30.815Z,9.08
2023-03-31T05:46:32.475Z,9.02
2023-03-31T05:51:34.941Z,9.04
2023-03-31T05:56:36.540Z,9.01
2023-03-31T06:01:38.265Z,9.02
2023-03-31T06:06:43.006Z,9.04
2023-03-31T06:11:44.766Z,9.17
2023-03-31T06:16:48.258Z,9.27
2023-03-31T06:21:49.843Z,9.28
2023-03-31T06:26:53.499Z,9.27
2023-03-31T06:31:55.548Z,9.30
2023-03-31T06:36:57.930Z,9.36
2023-03-31T06:41:59.489Z,9.32
2023-03-31T06:47:01.101Z,9.44
2023-03-31T06:52:04.060Z,9.49
2023-03-31T06:57:05.958Z,9.51
2023-03-31T07:02:07.595Z,9.47
2023-03-31T07:07:09.626Z,9.61
2023-03-31T07:12:11.526Z,9.67
2023-03-31T07:17:13.141Z,9.73
2023-03-31T07:22:15.924Z,9.86
2023-03-31T07:27:17.557Z,9.78
2023-03-31T07:32:19.268Z,9.85
2023-03-31T07:37:21.052Z,9.87
2023-03-31T07:42:22.679Z,9.99
2023-03-31T07:47:24.608Z,10.16
2023-03-31T07:52:26.246Z,10.50
2023-03-31T07:57:27.910Z,10.56
2023-03-31T08:02:29.619Z,10.96
2023-03-31T08:07:35.115Z,11.66
2023-03-31T08:12:36.953Z,12.32
2023-03-31T08:17:39.196Z,11.95
2023-03-31T08:22:41.316Z,12.17
2023-03-31T08:27:42.917Z,12.49
2023-03-31T08:32:44.830Z,12.62
2023-03-31T08:37:47.730Z,12.63
2023-03-31T08:42:51.749Z,12.99
2023-03-31T08:48:04.629Z,13.09
2023-03-31T08:53:17.845Z,12.95
2023-03-31T08:58:29.526Z,13.13
2023-03-31T09:03:47.363Z,13.14
2023-03-31T09:08:49.144Z,13.36
2023-03-31T09:13:53.437Z,12.92
2023-03-31T09:19:00.561Z,13.11
2023-03-31T09:24:11.829Z,13.36
2023-03-31T09:29:40.855Z,13.67
2023-03-31T09:34:44.679Z,14.17
2023-03-31T09:39:46.468Z,13.87
2023-03-31T09:44:52.320Z,13.86
2023-03-31T09:49:54.776Z,13.97
2023-03-31T09:55:00.666Z,14.20
2023-03-31T10:00:17.840Z,14.03
2023-03-31T10:05:27.479Z,13.87
2023-03-31T10:10:33.386Z,13.86
2023-03-31T10:15:39.698Z,13.99
2023-03-31T10:20:51.568Z,13.66
2023-03-31T10:25:54.256Z,13.66
2023-03-31T10:31:01.779Z,13.66
2023-03-31T10:36:13.734Z,13.48
2023-03-31T10:41:28.196Z,13.57
2023-03-31T10:46:49.654Z,13.23
2023-03-31T10:51:59.458Z,13.33
2023-03-31T10:57:04.633Z,13.30
2023-03-31T11:02:27.412Z,13.40
2023-03-31T11:07:50.717Z,13.38
2023-03-31T11:13:20.864Z,13.72
2023-03-31T11:18:57.033Z,13.65
2023-03-31T11:24:23.494Z,13.79
2023-03-31T11:29:40.366Z,13.76
2023-03-31T11:34:53.247Z,14.05
2023-03-31T11:39:57.515Z,13.92
2023-03-31T11:45:06.470Z,14.11
2023-03-31T11:50:14.827Z,14.11
2023-03-31T11:55:21.749Z,14.32
2023-03-31T12:00:28.659Z,14.27
2023-03-31T12:05:33.975Z,14.59
2023-03-31T12:10:37.930Z,14.74
2023-03-31T12:15:42.813Z,15.12
2023-03-31T12:20:56.577Z,14.75
2023-03-31T12:26:20.402Z,15.01
2023-03-31T12:31:26.322Z,15.26
2023-03-31T12:36:52.955Z,15.23
2023-03-31T12:42:13.754Z,15.00
2023-03-31T12:47:34.977Z,14.80
2023-03-31T12:52:44.605Z,15.30
2023-03-31T12:57:46.254Z,15.85
2023-03-31T13:02:48.859Z,15.43
2023-03-31T13:07:50.634Z,15.35
2023-03-31T13:13:16.369Z,15.07
2023-03-31T13:18:21.135Z,14.95
2023-03-31T13:23:28.761Z,14.80
2023-03-31T13:28:43.912Z,14.94
2023-03-31T13:33:52.051Z,14.62
2023-03-31T13:39:14.736Z,14.45
2023-03-31T13:44:51.145Z,14.28
2023-03-31T13:50:16.992Z,14.23
2023-03-31T13:55:39.913Z,14.05
2023-03-31T14:01:17.167Z,13.97
2023-03-31T14:06:33.796Z,13.96
2023-03-31T14:11:35.424Z,14.07
2023-03-31T14:16:40.051Z,14.15
2023-03-31T14:21:53.332Z,14.00
2023-03-31T14:27:21.216Z,13.89
2023-03-31T14:33:04.112Z,13.88
2023-03-31T14:38:11.921Z,13.87
2023-03-31T14:43:22.343Z,14.47
2023-03-31T14:48:24.202Z,14.23
2023-03-31T14:53:27.056Z,14.11
2023-03-31T14:58:35.082Z,14.10
2023-03-31T15:03:41.741Z,14.53
2023-03-31T15:08:43.394Z,14.63
2023-03-31T15:14:01.072Z,15.01
2023-03-31T15:19:15.183Z,14.59
2023-03-31T15:24:17.461Z,14.27
2023-03-31T15:29:29.748Z,14.27
2023-03-31T15:34:33.838Z,14.76
2023-03-31T15:39:37.621Z,14.44
2023-03-31T15:44:45.043Z,13.99
2023-03-31T15:50:16.271Z,13.83
2023-03-31T15:55:25.411Z,13.79
2023-03-31T16:00:52.449Z,13.68
2023-03-31T16:05:58.316Z,13.68
2023-03-31T16:11:10.081Z,13.55
2023-03-31T16:16:15.583Z,13.51
2023-03-31T16:21:30.951Z,13.39
2023-03-31T16:26:33.668Z,13.32
2023-03-31T16:31:41.462Z,13.26
2023-03-31T16:36:43.388Z,13.26
2023-03-31T16:41:45.131Z,13.21
2023-03-31T16:46:47.319Z,13.17
2023-03-31T16:51:49.009Z,13.15
2023-03-31T16:56:51.382Z,13.08
2023-03-31T17:01:53.559Z,13.03
2023-03-31T17:06:55.416Z,12.99
2023-03-31T17:11:57.317Z,12.97
2023-03-31T17:16:59.687Z,12.92
2023-03-31T17:22:03.634Z,12.88
2023-03-31T17:27:06.014Z,12.86
2023-03-31T17:32:07.999Z,12.80
2023-03-31T17:37:10.595Z,12.60
2023-03-31T17:42:14.224Z,12.32
2023-03-31T17:47:17.509Z,12.02
2023-03-31T17:52:19.200Z,11.44
2023-03-31T17:57:21.942Z,11.55
2023-03-31T18:02:25.121Z,11.60
2023-03-31T18:07:27.754Z,11.63
2023-03-31T18:12:29.803Z,11.84
2023-03-31T18:17:31.786Z,11.54
2023-03-31T18:22:34.260Z,11.71
2023-03-31T18:27:37.779Z,11.58
2023-03-31T18:32:40.198Z,10.89
2023-03-31T18:37:42.481Z,10.87
2023-03-31T18:42:44.542Z,10.64
2023-03-31T18:47:47.692Z,10.69
2023-03-31T18:52:54.980Z,10.26
2023-03-31T18:57:58.777Z,10.28
2023-03-31T19:03:02.107Z,10.11
2023-03-31T19:08:04.728Z,10.26
2023-03-31T19:13:08.295Z,10.27
2023-03-31T19:18:15.451Z,10.36
2023-03-31T19:23:18.036Z,10.49
2023-03-31T19:28:21.516Z,10.47
2023-03-31T19:33:25.475Z,10.65
2023-03-31T19:38:32.428Z,10.54
2023-03-31T19:43:36.660Z,10.40
2023-03-31T19:48:38.791Z,10.38
2023-03-31T19:53:41.708Z,10.36
2023-03-31T19:58:45.360Z,10.42
2023-03-31T20:03:54.397Z,10.36
2023-03-31T20:08:59.876Z,10.28
2023-03-31T20:14:03.256Z,10.19
2023-03-31T20:19:06.464Z,10.07
2023-03-31T20:24:11.468Z,10.27
2023-03-31T20:29:14.270Z,10.44
2023-03-31T20:34:18.552Z,10.37
2023-03-31T20:39:21.332Z,10.27
2023-03-31T20:44:23.718Z,10.20
2023-03-31T20:49:26.007Z,10.50
2023-03-31T20:54:28.159Z,10.48
2023-03-31T20:59:30.116Z,10.61
2023-03-31T21:04:31.867Z,10.47
2023-03-31T21:09:34.210Z,10.50
2023-03-31T21:14:36.712Z,10.40
2023-03-31T21:19:38.285Z,10.27
2023-03-31T21:24:39.895Z,10.64
2023-03-31T21:29:41.537Z,10.70
2023-03-31T21:34:43.101Z,10.75
2023-03-31T21:39:44.723Z,10.81
2023-03-31T21:44:46.325Z,10.77
2023-03-31T21:49:47.929Z,10.28
2023-03-31T21:54:49.493Z,10.43
2023-03-31T21:59:51.100Z,10.63
2023-03-31T22:04:52.752Z,10.64
2023-03-31T22:09:54.348Z,10.33
2023-03-31T22:14:56.995Z,10.57
2023-03-31T22:19:58.872Z,10.66
2023-03-31T22:25:00.622Z,10.66
2023-03-31T22:30:02.844Z,10.40
2023-03-31T22:35:04.828Z,10.52
2023-03-31T22:40:07.214Z,10.67
2023-03-31T22:45:09.273Z,10.69
2023-03-31T22:50:11.420Z,10.74
2023-03-31T22:55:13.119Z,10.75
2023-03-31T23:00:15.359Z,10.68
2023-03-31T23:05:17.015Z,10.57
2023-03-31T23:10:18.776Z,10.57
2023-03-31T23:15:20.854Z,10.55
2023-03-31T23:20:22.890Z,10.53
2023-03-31T23:25:24.475Z,10.52
2023-03-31T23:30:26.317Z,10.42
2023-03-31T23:35:28.073Z,10.05
2023-03-31T23:40:29.642Z,10.50
2023-03-31T23:45:31.774Z,10.45
2023-03-31T23:50:34.193Z,10.43
2023-03-31T23:55:36.601Z,10.43
